Terminal Aerodrome Forecast
Issued by NWS Binghamton, NY

Home | Current Version | Previous Version | Text Only | Print | Product List | Glossary On
Versions: 1 2 3 4 5 6 7 8 9 10 11 12 13 14 15 16 17
177
FTUS41 KBGM 251732
TAFAVP
TAF
KAVP 251732Z 2518/2618 21009G19KT P6SM FEW090
      TEMPO 2518/2519 4SM -TSRA OVC040CB
     FM251900 27008G16KT P6SM OVC080
      TEMPO 2520/2523 1SM +TSRA OVC015CB
     FM260200 VRB03KT P6SM SCT200
     FM261500 30006KT P6SM FEW050=

USA.gov is the U.S. government's official web portal to all federal, state and local government web resources and services.